Oceanside, CA (92058)

2:37 PM PST on February 08, 2016 (GMT -0800)
Mira Verde | | Change Station
CLOSE
Current Station
Personal Weather Station
Location: Oceanside, CA
Elevation: 276 ft
Nearby Weather Stations

Elev 276 ft 33.18 °N, 117.29 °W | Updated 4 minutes ago

Clear
Clear
79.9 °F
Feels Like 79 °F
N
3.0
Wind Variable Wind from WSW
Gusts 7.0 mph

Today
High -- | Low -- °F
--% Chance of Precip.
Yesterday
High -- | Low -- °F
Precip. -- in
Pressure 30.07 in
Visibility 10.0 miles
Clouds Clear
Heat Index 79 °F
Dew Point 38 °F
Humidity 22%
Rainfall 0.00 in
Snow Depth Not available.
6:39 AM 5:27 PM
New Moon, 0% visible
METAR KOKB 082152Z AUTO 22008KT 10SM CLR 26/04 A3007 RMK AO2 SLP181 T02610039
Pressure 30.07 in
Visibility 10.0 miles
Clouds Clear
Heat Index 79 °F
Dew Point 38 °F
Humidity 22%
Rainfall 0.00 in
Snow Depth Not available.
6:39 AM 5:27 PM
New Moon, 0% visible
METAR KOKB 082152Z AUTO 22008KT 10SM CLR 26/04 A3007 RMK AO2 SLP181 T02610039

10-Day Weather Forecast

Almanac

Astronomy

Feb. 08, 2016 Rise Set
Actual Time
Civil Twilight
Nautical Twilight
Astronomical Twilight
Moon
Length of Visible Light
Length of Day
Tomorrow will be .
, % of the Moon is Illuminated

Today's Extremes

State Highs State Lows

Community

WunderPhotos

Upload Photos

1,891,518 photos uploaded!

WunderBlog® & News

Nearby

Air Quality

  Air Quality AQ Index Pollutant
Not available.

Snow Depth

Station Depth Elevation

Earthquake Activity

City Distance Mag. Time & Date
Minimum magnitude displayed is 2.5.

Coastal Water Temperatures

Place Temperature

Stations

Nearby Weather Stations

Station Location Temp. Windchill Dew Point Humidity Wind Precip. Elev Updated Type
                   

Watches & Warnings

There are currently no watches in effect.